Time;durP1;ratioP1;P1;durP2;ratioP2;P2;SDS_P1;SDS_P2;PMS_P1;PMS_P2;Temp;Humidity;BMP_temperature;BMP_pressure;BME280_temperature;BME280_humidity;BME280_pressure;Samples;Min_cycle;Max_cycle;Signal;HPM_P1;HPM_P2
2022/12/09 00:00:05;;;;;;;33.80;15.02;;;;;;;7.89;87.58;99787.09;5072086;28;20020;-37
2022/12/09 00:02:31;;;;;;;29.83;14.10;;;;;;;7.78;86.17;99790.22;5072457;28;20509;-36
2022/12/09 00:04:56;;;;;;;34.28;15.10;;;;;;;7.79;87.45;99790.03;5072554;28;20032;-36
2022/12/09 00:07:22;;;;;;;33.85;14.57;;;;;;;7.86;88.03;99779.50;5072239;28;20028;-36
2022/12/09 00:09:47;;;;;;;30.95;14.10;;;;;;;7.66;87.60;99775.81;5072126;28;20443;-36
2022/12/09 00:12:12;;;;;;;28.40;12.90;;;;;;;7.79;86.66;99775.97;5072349;28;20119;-36
2022/12/09 00:14:38;;;;;;;30.52;13.85;;;;;;;7.77;88.43;99789.41;5072184;28;20028;-36
2022/12/09 00:17:03;;;;;;;29.10;14.15;;;;;;;7.73;87.66;99782.84;5072083;28;20052;-36
2022/12/09 00:19:28;;;;;;;36.55;15.25;;;;;;;7.78;88.63;99775.13;5071945;28;20027;-36
2022/12/09 00:21:54;;;;;;;31.90;13.02;;;;;;;7.95;88.23;99782.88;5071994;28;20111;-36
2022/12/09 00:24:19;;;;;;;29.92;13.88;;;;;;;7.82;88.38;99775.59;5071883;28;20047;-36
2022/12/09 00:26:45;;;;;;;31.35;13.60;;;;;;;7.96;87.99;99779.25;5071902;28;20039;-36
2022/12/09 00:29:10;;;;;;;28.13;13.55;;;;;;;7.90;88.12;99772.00;5071768;28;20141;-36
2022/12/09 00:31:37;;;;;;;30.10;13.35;;;;;;;7.94;87.68;99784.72;5071750;28;20032;-36
2022/12/09 00:34:06;;;;;;;31.33;14.07;;;;;;;8.00;88.64;99791.94;5072116;28;20371;-36
2022/12/09 00:36:32;;;;;;;30.45;14.10;;;;;;;8.12;87.96;99804.72;5071802;28;20035;-36
2022/12/09 00:38:58;;;;;;;30.70;13.68;;;;;;;7.91;87.93;99800.16;5071399;28;20099;-36
2022/12/09 00:41:24;;;;;;;30.20;13.60;;;;;;;7.88;88.18;99798.72;5071733;28;20490;-36
2022/12/09 00:43:50;;;;;;;28.38;13.30;;;;;;;7.90;88.26;99794.06;5071701;28;20103;-36
2022/12/09 00:46:15;;;;;;;32.28;13.07;;;;;;;7.80;88.70;99794.31;5071730;28;20538;-35
2022/12/09 00:48:42;;;;;;;31.58;12.95;;;;;;;7.69;89.23;99796.63;5071867;28;20043;-36
2022/12/09 00:51:09;;;;;;;30.77;13.60;;;;;;;7.84;89.31;99794.78;5071515;28;20150;-36
2022/12/09 00:53:35;;;;;;;31.58;13.20;;;;;;;7.94;88.35;99794.47;5071247;28;20150;-36
2022/12/09 00:56:01;;;;;;;29.83;13.73;;;;;;;7.72;88.02;99775.88;5071293;28;20073;-36
2022/12/09 00:58:26;;;;;;;27.83;13.43;;;;;;;7.87;88.56;99778.53;5071189;28;20040;-36
2022/12/09 01:00:54;;;;;;;33.65;14.13;;;;;;;7.98;88.57;99786.00;5071360;28;20156;-36
2022/12/09 01:03:20;;;;;;;28.35;13.93;;;;;;;7.96;87.46;99771.28;5070250;28;20480;-36
2022/12/09 01:05:46;;;;;;;32.40;13.48;;;;;;;7.86;88.14;99773.41;5071057;28;20071;-37
2022/12/09 01:08:12;;;;;;;29.13;13.77;;;;;;;7.87;89.08;99769.75;5071066;28;20077;-36
2022/12/09 01:10:40;;;;;;;27.95;12.82;;;;;;;8.01;88.11;99776.84;5070993;28;20043;-36
2022/12/09 01:13:06;;;;;;;30.50;12.65;;;;;;;8.02;87.43;99773.19;5070661;28;20059;-36
2022/12/09 01:15:31;;;;;;;28.80;12.80;;;;;;;7.94;87.25;99773.28;5070371;28;20129;-36
2022/12/09 01:17:57;;;;;;;30.40;13.25;;;;;;;7.91;87.94;99784.28;5070694;28;20024;-36
2022/12/09 01:20:22;;;;;;;28.02;12.20;;;;;;;7.81;88.38;99788.03;5071097;28;20043;-36
2022/12/09 01:22:48;;;;;;;30.17;11.85;;;;;;;7.95;88.78;99786.34;5070850;28;20033;-36
2022/12/09 01:25:13;;;;;;;25.83;11.75;;;;;;;8.05;89.26;99786.06;5070630;28;20039;-37
2022/12/09 01:27:39;;;;;;;24.58;11.52;;;;;;;7.91;89.75;99773.66;5066802;28;20034;-37
2022/12/09 01:30:09;;;;;;;23.65;11.15;;;;;;;8.09;90.49;99786.50;5056919;28;20021;-36
2022/12/09 01:32:34;;;;;;;;;;;;;;;7.94;87.98;99783.88;5064884;28;20036;-37
2022/12/09 01:35:01;;;;;;;23.15;11.40;;;;;;;8.03;87.48;99764.22;5070641;28;19966;-36
2022/12/09 01:37:27;;;;;;;24.35;10.93;;;;;;;7.94;87.25;99776.78;5070719;28;20025;-36
2022/12/09 01:39:52;;;;;;;21.25;11.02;;;;;;;7.82;88.12;99781.72;5070702;28;20035;-36
2022/12/09 01:42:20;;;;;;;22.33;11.35;;;;;;;7.91;88.19;99782.44;5070095;28;20024;-36
2022/12/09 01:45:29;;;;;;;24.25;11.38;;;;;;;7.75;88.91;99780.81;5069455;28;20093;-36
2022/12/09 01:48:17;;;;;;;22.02;11.07;;;;;;;7.74;89.12;99770.41;5070413;28;20093;-36
2022/12/09 01:50:59;;;;;;;22.35;10.90;;;;;;;7.61;89.25;99768.41;5070288;28;20024;-36
2022/12/09 01:53:32;;;;;;;22.42;10.55;;;;;;;7.74;89.39;99773.88;5070649;28;20113;-36
2022/12/09 01:56:05;;;;;;;21.83;10.85;;;;;;;7.57;89.39;99754.69;5070650;28;20055;-36
2022/12/09 01:58:31;;;;;;;21.08;10.98;;;;;;;7.64;89.35;99773.34;5070769;28;20032;-36
2022/12/09 02:00:56;;;;;;;23.75;11.15;;;;;;;7.69;89.11;99775.41;5070569;28;20016;-36
2022/12/09 02:03:22;;;;;;;21.67;11.45;;;;;;;7.75;89.66;99778.16;5070660;28;20111;-37
2022/12/09 02:05:47;;;;;;;22.00;10.55;;;;;;;7.89;89.42;99775.69;5070528;28;20380;-36
2022/12/09 02:08:16;;;;;;;19.20;10.30;;;;;;;7.73;89.02;99753.69;5070497;28;20187;-37
2022/12/09 02:11:01;;;;;;;18.70;10.10;;;;;;;7.80;88.42;99754.56;5070386;28;20025;-37
2022/12/09 02:13:37;;;;;;;21.13;10.45;;;;;;;7.67;89.54;99741.16;5070321;28;20028;-37
2022/12/09 02:16:08;;;;;;;21.58;10.35;;;;;;;7.78;89.08;99748.63;5070160;28;20283;-36
2022/12/09 02:18:50;;;;;;;20.13;10.15;;;;;;;7.73;89.74;99759.00;5070299;28;20492;-36
2022/12/09 02:21:28;;;;;;;19.75;10.40;;;;;;;7.83;89.20;99759.50;5070440;28;20029;-35
2022/12/09 02:24:03;;;;;;;23.02;10.35;;;;;;;7.77;89.27;99760.25;5074207;28;20071;-35
2022/12/09 02:26:39;;;;;;;19.73;9.27;;;;;;;7.77;90.20;99756.81;5074229;28;20055;-37
2022/12/09 02:29:23;;;;;;;20.33;10.15;;;;;;;7.81;89.69;99745.63;5074181;28;20060;-38
2022/12/09 02:31:58;;;;;;;20.55;9.73;;;;;;;7.79;89.78;99749.50;5074134;28;20084;-36
2022/12/09 02:34:29;;;;;;;18.77;9.52;;;;;;;7.76;90.32;99758.59;5073874;28;20391;-36
2022/12/09 02:37:19;;;;;;;18.98;9.27;;;;;;;7.75;90.17;99753.47;5074266;28;20020;-36
2022/12/09 02:40:25;;;;;;;20.17;9.43;;;;;;;7.82;90.33;99757.03;5074455;28;20491;-36
2022/12/09 02:42:50;;;;;;;17.75;9.50;;;;;;;7.93;89.61;99763.72;5074482;28;20028;-36
2022/12/09 02:45:19;;;;;;;18.48;8.68;;;;;;;7.78;89.77;99758.44;5074361;28;20044;-37
2022/12/09 02:47:50;;;;;;;18.75;9.77;;;;;;;7.85;89.67;99756.69;5074323;28;20026;-35
2022/12/09 02:50:21;;;;;;;18.58;9.75;;;;;;;7.91;89.62;99760.44;5074068;28;20039;-36
2022/12/09 02:52:48;;;;;;;19.52;9.55;;;;;;;7.73;90.04;99756.34;5074255;28;20499;-37
2022/12/09 02:55:16;;;;;;;20.73;10.30;;;;;;;7.61;90.64;99736.59;5073877;28;20024;-36
2022/12/09 02:57:42;;;;;;;18.50;9.55;;;;;;;7.78;90.77;99755.78;5074289;28;20048;-37
2022/12/09 03:00:08;;;;;;;22.33;10.40;;;;;;;7.82;90.45;99767.63;5074267;28;20016;-36
2022/12/09 03:02:37;;;;;;;18.20;9.48;;;;;;;7.81;89.43;99753.59;5074190;28;20024;-36
2022/12/09 03:05:22;;;;;;;19.75;9.68;;;;;;;7.98;89.23;99759.50;5073953;28;20125;-36
2022/12/09 03:08:06;;;;;;;18.40;9.40;;;;;;;7.91;89.15;99763.06;5074534;28;20042;-34
2022/12/09 03:10:42;;;;;;;17.67;8.95;;;;;;;7.95;88.84;99751.09;5073926;28;20024;-37
2022/12/09 03:13:52;;;;;;;17.90;9.00;;;;;;;7.69;90.19;99757.72;5074003;28;20071;-35
2022/12/09 03:16:20;;;;;;;21.00;9.35;;;;;;;7.74;90.46;99775.69;5036007;28;20045;-37
2022/12/09 03:18:50;;;;;;;18.08;9.45;;;;;;;7.77;91.10;99773.50;5073902;28;20086;-37
2022/12/09 03:21:20;;;;;;;21.00;9.52;;;;;;;7.78;90.58;99774.31;5073676;28;20021;-37
2022/12/09 03:23:45;;;;;;;19.83;9.48;;;;;;;7.72;90.48;99762.63;5073730;28;20024;-37
2022/12/09 03:26:14;;;;;;;21.73;10.10;;;;;;;7.71;91.33;99762.81;5073870;28;20035;-35
2022/12/09 03:28:46;;;;;;;22.47;10.10;;;;;;;7.85;90.55;99779.72;5073853;28;20055;-35
2022/12/09 03:31:15;;;;;;;20.00;10.48;;;;;;;7.82;90.62;99788.84;5073460;28;20165;-36
2022/12/09 03:33:42;;;;;;;22.38;10.68;;;;;;;7.83;90.00;99795.78;5073397;28;20178;-36
2022/12/09 03:36:11;;;;;;;18.85;9.77;;;;;;;7.88;90.88;99797.88;5073658;28;20020;-36
2022/12/09 03:38:39;;;;;;;18.83;9.73;;;;;;;7.97;89.77;99796.78;5073584;28;20017;-36
2022/12/09 03:41:14;;;;;;;20.63;9.30;;;;;;;7.87;89.63;99783.81;5073640;28;20017;-36
2022/12/09 03:43:46;;;;;;;20.17;10.20;;;;;;;7.89;90.56;99788.94;5073113;28;20452;-36
2022/12/09 03:46:12;;;;;;;17.15;9.93;;;;;;;7.87;90.68;99799.72;5073557;28;20024;-36
2022/12/09 03:48:37;;;;;;;21.80;9.90;;;;;;;7.78;90.06;99792.88;5073169;28;20017;-36
2022/12/09 03:51:22;;;;;;;21.95;10.30;;;;;;;7.75;91.10;99791.41;5073188;28;20086;-36
2022/12/09 03:53:55;;;;;;;20.90;9.60;;;;;;;7.85;90.29;99796.44;5072939;28;20028;-36
2022/12/09 03:56:28;;;;;;;21.10;10.20;;;;;;;7.75;89.98;99801.16;5073177;28;20476;-35
2022/12/09 03:58:56;;;;;;;17.83;9.27;;;;;;;7.68;91.07;99779.91;5072726;28;20051;-36
2022/12/09 04:01:24;;;;;;;18.77;9.57;;;;;;;7.77;91.35;99789.41;5072980;28;20056;-36
2022/12/09 04:03:52;;;;;;;23.05;10.65;;;;;;;7.88;89.69;99789.94;5073142;28;20440;-37
2022/12/09 04:06:17;;;;;;;21.90;11.13;;;;;;;7.87;89.27;99790.94;5072957;28;20033;-38
2022/12/09 04:08:44;;;;;;;20.13;9.77;;;;;;;8.00;90.68;99785.81;5073084;28;20041;-35
2022/12/09 04:11:09;;;;;;;20.08;9.68;;;;;;;7.75;89.60;99782.63;5072849;28;20020;-37
2022/12/09 04:13:34;;;;;;;16.33;9.15;;;;;;;7.90;89.25;99790.56;5072651;28;20013;-36
2022/12/09 04:16:00;;;;;;;21.45;9.57;;;;;;;8.00;88.87;99799.06;5072679;28;20418;-36
2022/12/09 04:18:25;;;;;;;34.15;16.75;;;;;;;7.98;89.01;99788.66;5072259;28;20481;-35
2022/12/09 04:20:51;;;;;;;21.63;10.20;;;;;;;7.76;90.67;99777.16;5072843;28;20059;-36
2022/12/09 04:23:16;;;;;;;29.45;11.77;;;;;;;7.84;90.73;99770.94;5072363;28;20448;-36
2022/12/09 04:25:41;;;;;;;43.72;17.20;;;;;;;7.76;89.74;99771.03;5072720;28;20021;-36
2022/12/09 04:28:07;;;;;;;28.15;10.45;;;;;;;7.93;89.10;99776.97;5072601;28;20028;-37
2022/12/09 04:30:32;;;;;;;22.38;10.10;;;;;;;7.81;89.28;99768.66;5072800;28;20489;-37
2022/12/09 04:32:59;;;;;;;18.30;9.45;;;;;;;7.81;89.74;99763.38;5072714;28;20020;-35
2022/12/09 04:35:24;;;;;;;21.48;9.85;;;;;;;7.76;91.67;99769.19;5072579;28;20036;-36
2022/12/09 04:37:49;;;;;;;20.23;9.90;;;;;;;7.90;90.41;99770.22;5072491;28;20020;-36
2022/12/09 04:40:15;;;;;;;20.00;9.98;;;;;;;7.91;88.95;99768.38;5071862;28;20020;-37
2022/12/09 04:42:41;;;;;;;21.20;9.52;;;;;;;7.59;90.48;99773.88;5072335;28;20104;-35
2022/12/09 04:45:07;;;;;;;21.10;9.77;;;;;;;7.51;92.67;99759.91;5071355;28;20020;-37
2022/12/09 04:47:33;;;;;;;22.13;10.10;;;;;;;7.92;91.04;99772.66;5071783;28;20024;-36
2022/12/09 04:49:58;;;;;;;21.92;10.15;;;;;;;7.90;90.13;99767.56;5071883;28;20028;-35
2022/12/09 04:52:24;;;;;;;18.73;9.57;;;;;;;7.79;90.44;99760.09;5071846;28;20202;-36
2022/12/09 04:54:50;;;;;;;22.55;10.50;;;;;;;7.75;91.63;99762.28;5072216;28;20039;-36
2022/12/09 04:57:16;;;;;;;23.55;9.82;;;;;;;7.74;91.47;99768.56;5071737;28;20460;-36
2022/12/09 04:59:41;;;;;;;22.08;9.68;;;;;;;7.81;89.50;99774.78;5071805;28;20016;-36
2022/12/09 05:02:07;;;;;;;20.30;9.13;;;;;;;7.68;89.79;99776.44;5072173;28;20073;-36
2022/12/09 05:04:32;;;;;;;20.58;10.10;;;;;;;7.70;89.56;99774.44;5071485;28;20424;-36
2022/12/09 05:06:57;;;;;;;22.20;10.07;;;;;;;7.83;90.74;99783.34;5071629;28;20120;-36
2022/12/09 05:09:23;;;;;;;24.77;10.00;;;;;;;7.93;90.37;99785.72;5071511;28;20028;-37
2022/12/09 05:11:50;;;;;;;21.27;9.95;;;;;;;7.80;89.87;99783.72;5071831;28;20097;-36
2022/12/09 05:14:16;;;;;;;27.80;11.52;;;;;;;7.76;90.31;99784.28;5071480;28;20028;-36
2022/12/09 05:16:42;;;;;;;23.98;10.82;;;;;;;8.00;90.19;99783.97;5071171;28;20045;-36
2022/12/09 05:19:07;;;;;;;24.95;11.23;;;;;;;7.96;89.17;99789.84;5071665;28;20024;-37
2022/12/09 05:21:33;;;;;;;22.55;11.43;;;;;;;7.72;90.65;99786.47;5071550;28;20073;-36
2022/12/09 05:24:01;;;;;;;27.63;11.85;;;;;;;7.63;91.05;99804.31;5071318;28;20028;-36
2022/12/09 05:26:26;;;;;;;122.20;58.92;;;;;;;7.58;90.97;99797.91;5071085;28;20534;-36
2022/12/09 05:28:52;;;;;;;38.28;18.92;;;;;;;7.67;91.20;99796.78;5070862;28;20017;-36
2022/12/09 05:31:20;;;;;;;26.23;12.05;;;;;;;7.47;91.87;99790.41;5071173;28;20032;-35
2022/12/09 05:33:46;;;;;;;22.15;11.30;;;;;;;7.59;91.60;99789.75;5071226;28;20480;-36
2022/12/09 05:36:13;;;;;;;25.10;11.68;;;;;;;7.75;90.24;99791.41;5071205;28;20017;-36
2022/12/09 05:38:39;;;;;;;25.48;12.07;;;;;;;7.60;91.13;99785.31;5070814;28;20099;-37
2022/12/09 05:41:05;;;;;;;27.30;12.65;;;;;;;7.63;90.34;99783.13;5070959;28;20542;-37
2022/12/09 05:43:32;;;;;;;24.00;12.30;;;;;;;7.57;91.67;99783.00;5071109;28;20024;-37
2022/12/09 05:45:59;;;;;;;33.30;12.38;;;;;;;7.57;92.68;99788.31;5069585;28;20025;-37
2022/12/09 05:48:24;;;;;;;24.83;11.00;;;;;;;8.47;98.83;99797.78;5071208;28;20028;-37
2022/12/09 05:51:01;;;;;;;26.88;11.45;;;;;;;9.40;98.16;99789.78;5070771;28;20031;-36
2022/12/09 05:53:27;;;;;;;23.60;12.55;;;;;;;10.20;87.17;99786.69;5070694;28;20027;-36
2022/12/09 05:55:53;;;;;;;24.92;11.60;;;;;;;9.43;84.44;99786.75;5070556;28;20028;-35
2022/12/09 05:58:19;;;;;;;25.58;11.90;;;;;;;9.39;86.03;99788.97;5070178;28;20104;-37
2022/12/09 06:00:44;;;;;;;23.38;11.35;;;;;;;9.54;84.09;99788.03;5070268;28;20026;-37
2022/12/09 06:03:09;;;;;;;26.67;13.25;;;;;;;8.88;86.35;99785.72;5070474;28;20036;-36
2022/12/09 06:05:36;;;;;;;26.17;12.25;;;;;;;8.74;86.87;99796.22;5070196;28;20024;-37
2022/12/09 06:08:02;;;;;;;26.88;12.07;;;;;;;8.76;88.34;99804.00;5070104;28;20178;-36
2022/12/09 06:10:27;;;;;;;28.60;14.00;;;;;;;9.25;86.71;99787.22;5070076;28;20060;-37
2022/12/09 06:12:54;;;;;;;110.63;56.33;;;;;;;8.99;86.13;99804.59;5070583;28;20063;-37
2022/12/09 06:15:19;;;;;;;53.80;28.90;;;;;;;8.71;87.64;99815.16;5070083;28;20031;-37
2022/12/09 06:17:45;;;;;;;36.72;18.73;;;;;;;8.65;87.44;99820.41;5070159;28;20024;-37
2022/12/09 06:20:10;;;;;;;40.25;19.67;;;;;;;9.29;86.23;99816.88;5070046;28;20050;-36
2022/12/09 06:22:35;;;;;;;29.50;14.82;;;;;;;9.07;85.67;99824.88;5070449;28;20032;-37
2022/12/09 06:25:01;;;;;;;32.67;15.70;;;;;;;9.03;85.42;99841.38;5070272;28;20024;-36
2022/12/09 06:27:26;;;;;;;29.15;14.45;;;;;;;8.68;86.85;99830.63;5069993;28;20031;-36
2022/12/09 06:29:52;;;;;;;33.78;15.02;;;;;;;8.70;88.30;99831.25;5069944;28;20021;-36
2022/12/09 06:32:17;;;;;;;37.63;18.92;;;;;;;9.08;86.82;99823.03;5069986;28;20024;-37
2022/12/09 06:34:43;;;;;;;46.75;23.98;;;;;;;8.71;87.58;99840.88;5069879;28;20038;-36
2022/12/09 06:37:08;;;;;;;40.25;21.60;;;;;;;8.53;88.86;99836.81;5070213;28;20404;-37
2022/12/09 06:39:33;;;;;;;41.85;22.08;;;;;;;9.03;88.45;99839.53;5069732;28;20025;-37
2022/12/09 06:41:59;;;;;;;41.38;21.45;;;;;;;8.72;87.40;99835.38;5070090;28;20100;-37
2022/12/09 06:44:25;;;;;;;35.17;16.55;;;;;;;8.73;87.01;99844.16;5069989;28;20429;-37
2022/12/09 06:46:50;;;;;;;34.90;16.50;;;;;;;8.96;86.78;99842.13;5069939;28;20027;-36
2022/12/09 06:49:16;;;;;;;31.25;16.30;;;;;;;9.28;85.61;99839.13;5069776;28;20559;-37
2022/12/09 06:51:41;;;;;;;31.98;16.90;;;;;;;8.89;85.79;99835.13;5069414;28;20020;-37
2022/12/09 06:54:08;;;;;;;32.30;15.73;;;;;;;9.01;84.94;99836.25;5069559;28;20025;-37
2022/12/09 06:56:34;;;;;;;31.05;15.80;;;;;;;9.42;84.51;99832.91;5068896;28;20025;-37
2022/12/09 06:58:59;;;;;;;30.45;14.88;;;;;;;9.19;84.67;99828.66;5069503;28;20023;-36
2022/12/09 07:01:25;;;;;;;26.40;13.32;;;;;;;8.82;85.46;99832.41;5069533;28;20031;-37
2022/12/09 07:03:54;;;;;;;25.85;13.93;;;;;;;8.62;86.43;99845.47;5069699;28;20126;-37
2022/12/09 07:06:36;;;;;;;29.40;15.30;;;;;;;8.63;87.13;99841.00;5069801;28;20433;-36
2022/12/09 07:09:20;;;;;;;33.13;14.40;;;;;;;9.00;86.13;99834.59;5072418;28;20504;-36
2022/12/09 07:11:47;;;;;;;28.98;14.35;;;;;;;9.00;85.28;99847.88;5073224;28;20028;-37
2022/12/09 07:14:15;;;;;;;33.25;15.68;;;;;;;8.74;85.95;99840.50;5073464;28;20115;-38
2022/12/09 07:16:41;;;;;;;31.05;16.20;;;;;;;8.78;85.91;99837.28;5072881;28;20055;-37
2022/12/09 07:19:12;;;;;;;34.03;15.10;;;;;;;8.80;86.67;99837.09;5072710;28;20064;-37
2022/12/09 07:21:38;;;;;;;67.20;16.55;;;;;;;9.40;84.25;99845.56;5072377;28;20028;-36
2022/12/09 07:24:03;;;;;;;33.78;14.60;;;;;;;8.98;84.95;99852.56;5072924;28;20029;-36
2022/12/09 07:26:31;;;;;;;29.05;14.45;;;;;;;8.99;85.19;99844.41;5072931;28;20017;-36
2022/12/09 07:28:56;;;;;;;32.38;14.48;;;;;;;8.84;85.57;99840.19;5073304;28;20025;-36
2022/12/09 07:31:23;;;;;;;26.83;13.93;;;;;;;9.23;84.52;99833.56;5072530;28;20029;-38
2022/12/09 07:33:49;;;;;;;26.15;12.80;;;;;;;9.46;83.09;99822.72;5072735;28;20453;-37
2022/12/09 07:36:15;;;;;;;81.90;43.30;;;;;;;9.20;83.52;99832.13;5072828;28;20028;-37
2022/12/09 07:38:41;;;;;;;33.08;17.08;;;;;;;9.07;84.10;99827.53;5072810;28;20449;-37
2022/12/09 07:41:08;;;;;;;27.10;12.25;;;;;;;9.55;82.61;99837.50;5073038;28;20097;-36
2022/12/09 07:43:35;;;;;;;30.85;12.70;;;;;;;9.02;84.38;99845.03;5072409;28;20078;-36
2022/12/09 07:46:05;;;;;;;25.67;11.90;;;;;;;8.98;84.61;99849.91;5072609;28;20039;-36
2022/12/09 07:48:30;;;;;;;24.52;11.57;;;;;;;8.84;86.05;99842.84;5072588;28;20032;-37
2022/12/09 07:51:00;;;;;;;29.67;11.63;;;;;;;9.45;83.52;99843.16;5072393;28;20047;-36
2022/12/09 07:53:26;;;;;;;26.77;11.40;;;;;;;9.23;83.71;99839.69;5072437;28;20558;-37
2022/12/09 07:55:51;;;;;;;83.43;41.83;;;;;;;9.16;84.16;99841.50;5072172;28;20115;-36
2022/12/09 07:58:16;;;;;;;155.80;69.78;;;;;;;9.15;83.80;99834.53;5072396;28;20121;-36
2022/12/09 08:00:42;;;;;;;35.00;15.80;;;;;;;9.75;81.54;99829.66;5072178;28;20024;-36
2022/12/09 08:03:08;;;;;;;27.70;12.50;;;;;;;9.81;80.47;99833.38;5072604;28;20385;-36
2022/12/09 08:05:34;;;;;;;24.95;13.07;;;;;;;9.43;80.98;99847.84;5072575;28;20032;-44
2022/12/09 08:07:59;;;;;;;24.30;12.88;;;;;;;9.26;82.57;99841.97;5072246;28;20027;-44
2022/12/09 08:10:25;;;;;;;28.92;13.68;;;;;;;9.90;80.45;99846.28;5071762;28;20468;-44
2022/12/09 08:12:50;;;;;;;28.55;15.73;;;;;;;9.45;82.11;99847.66;5072478;28;20028;-44
2022/12/09 08:15:18;;;;;;;27.98;13.77;;;;;;;9.23;82.80;99849.50;5071818;28;20484;-44
2022/12/09 08:17:44;;;;;;;21.17;11.48;;;;;;;9.30;82.24;99845.06;5072211;28;20030;-44
2022/12/09 08:20:10;;;;;;;26.75;12.10;;;;;;;9.78;81.22;99840.69;5070700;28;20017;-44
2022/12/09 08:22:36;;;;;;;27.30;13.80;;;;;;;9.47;81.51;99845.63;5071643;28;20107;-44
2022/12/09 08:25:01;;;;;;;31.27;15.07;;;;;;;9.26;82.94;99860.56;5071642;28;20111;-44
2022/12/09 08:27:27;;;;;;;26.92;13.23;;;;;;;9.12;84.30;99872.06;5071514;28;20038;-43
2022/12/09 08:29:52;;;;;;;32.03;15.48;;;;;;;9.73;82.93;99853.75;5071683;28;20103;-44
2022/12/09 08:32:17;;;;;;;25.75;12.68;;;;;;;9.59;82.01;99852.88;5071172;28;20024;-45
2022/12/09 08:34:43;;;;;;;24.85;10.73;;;;;;;8.97;83.87;99845.63;5071544;28;20048;-47
2022/12/09 08:37:08;;;;;;;24.70;12.10;;;;;;;9.01;84.09;99836.25;5071172;28;20086;-43
2022/12/09 08:39:34;;;;;;;79.47;38.17;;;;;;;9.16;83.81;99830.88;5070267;28;20024;-45
2022/12/09 08:41:59;;;;;;;36.10;17.88;;;;;;;9.15;84.83;99821.25;5071720;28;20422;-43
2022/12/09 08:44:24;;;;;;;26.42;13.82;;;;;;;9.93;81.45;99829.94;5071214;28;20089;-44
2022/12/09 08:46:51;;;;;;;29.25;14.77;;;;;;;9.68;81.55;99839.41;5071283;28;20097;-44
2022/12/09 08:49:20;;;;;;;26.52;14.23;;;;;;;9.46;82.04;99828.03;5071175;28;20397;-45
2022/12/09 08:51:48;;;;;;;33.95;16.63;;;;;;;9.35;82.87;99827.56;5071317;28;20029;-45
2022/12/09 08:54:13;;;;;;;33.45;17.50;;;;;;;9.11;84.76;99827.97;5071631;28;20036;-43
2022/12/09 08:56:39;;;;;;;39.67;18.20;;;;;;;9.42;84.42;99829.44;5071221;28;20407;-46
2022/12/09 08:59:04;;;;;;;34.05;15.52;;;;;;;9.43;82.71;99828.44;5070970;28;20361;-45
2022/12/09 09:01:33;;;;;;;28.95;14.07;;;;;;;9.49;82.02;99827.63;5071031;28;20028;-45
2022/12/09 09:04:06;;;;;;;26.48;14.30;;;;;;;9.32;83.38;99825.28;5070991;28;20044;-45
2022/12/09 09:06:31;;;;;;;29.02;14.15;;;;;;;9.41;83.57;99830.47;5070457;28;20032;-44
2022/12/09 09:08:57;;;;;;;29.75;15.07;;;;;;;10.15;79.51;99812.03;5070336;28;20028;-44
2022/12/09 09:11:22;;;;;;;28.25;15.38;;;;;;;9.88;80.54;99819.09;5070499;28;20017;-44
2022/12/09 09:13:51;;;;;;;37.40;17.50;;;;;;;9.69;80.68;99817.97;5071051;28;20028;-45
2022/12/09 09:16:22;;;;;;;31.38;16.50;;;;;;;9.61;80.97;99807.47;5070342;28;20147;-44
2022/12/09 09:18:48;;;;;;;36.72;18.05;;;;;;;9.45;82.28;99797.19;5070692;28;20142;-43
2022/12/09 09:21:17;;;;;;;29.60;16.58;;;;;;;10.16;80.26;99797.72;5070495;28;20072;-44
2022/12/09 09:23:43;;;;;;;28.83;16.38;;;;;;;10.26;78.09;99784.06;5070520;28;20020;-44
2022/12/09 09:26:20;;;;;;;31.17;15.15;;;;;;;10.02;78.41;99780.09;5070139;28;20447;-44
2022/12/09 09:28:46;;;;;;;34.20;15.40;;;;;;;9.76;80.55;99778.94;5070201;28;20027;-43
2022/12/09 09:31:14;;;;;;;31.52;15.65;;;;;;;9.64;81.23;99777.88;5070130;28;20060;-44
2022/12/09 09:33:40;;;;;;;30.38;15.32;;;;;;;9.57;81.16;99772.50;5070196;28;20527;-44
2022/12/09 09:36:07;;;;;;;35.40;15.82;;;;;;;9.74;81.43;99782.81;5069941;28;20113;-45
2022/12/09 09:38:34;;;;;;;35.67;16.52;;;;;;;9.49;82.71;99775.31;5070430;28;20067;-44
2022/12/09 09:41:01;;;;;;;34.05;16.63;;;;;;;10.16;80.28;99772.97;5070315;28;20044;-45
2022/12/09 09:43:37;;;;;;;33.55;16.60;;;;;;;10.03;80.34;99767.59;5070530;28;20476;-46
2022/12/09 09:46:03;;;;;;;32.97;15.93;;;;;;;9.86;80.32;99761.81;5070222;28;20568;-44
2022/12/09 09:48:33;;;;;;;33.47;16.17;;;;;;;9.75;80.67;99757.91;5070014;28;20024;-44
2022/12/09 09:51:12;;;;;;;36.10;16.40;;;;;;;9.50;81.97;99749.56;5070306;28;20017;-45
2022/12/09 09:53:37;;;;;;;32.30;15.73;;;;;;;9.55;81.94;99763.91;5069714;28;20067;-44
2022/12/09 09:56:12;;;;;;;30.85;15.93;;;;;;;9.52;81.72;99756.34;5069993;28;20107;-46
2022/12/09 09:59:17;;;;;;;31.77;15.60;;;;;;;9.56;82.02;99757.59;5069967;28;20048;-45
2022/12/09 10:01:50;;;;;;;35.80;16.10;;;;;;;9.79;81.25;99757.28;5046777;28;20052;-45
2022/12/09 10:05:00;;;;;;;30.85;16.58;;;;;;;9.96;80.97;99752.44;5069596;28;20035;-43
2022/12/09 10:07:49;;;;;;;38.13;16.15;;;;;;;10.02;79.33;99740.22;5040992;28;20501;-44
2022/12/09 10:10:42;;;;;;;30.73;15.55;;;;;;;9.89;80.35;99729.53;5068216;28;20021;-43
2022/12/09 10:13:30;;;;;;;34.08;16.52;;;;;;;9.95;80.22;99728.72;5069481;28;20024;-43
2022/12/09 10:16:01;;;;;;;40.03;20.30;;;;;;;9.94;79.82;99722.59;5069737;28;20075;-46
2022/12/09 10:18:43;;;;;;;45.80;21.90;;;;;;;10.10;79.06;99728.56;5069691;28;20039;-45
2022/12/09 10:21:17;;;;;;;46.95;23.25;;;;;;;9.55;81.93;99728.56;5069252;28;20013;-44
2022/12/09 10:23:44;;;;;;;46.78;24.35;;;;;;;9.75;81.12;99729.47;5069303;28;20043;-44
2022/12/09 10:26:27;;;;;;;47.58;22.88;;;;;;;9.89;80.02;99713.56;5069853;28;20036;-45
2022/12/09 10:29:44;;;;;;;44.17;23.52;;;;;;;9.80;79.14;99683.69;5069553;28;20097;-45
2022/12/09 10:32:16;;;;;;;45.03;22.75;;;;;;;9.65;80.97;99680.38;5007804;28;20034;-45
2022/12/09 10:34:41;;;;;;;47.17;23.02;;;;;;;9.84;81.00;99678.78;5007842;28;20109;-44
2022/12/09 10:37:24;;;;;;;48.00;22.77;;;;;;;9.58;82.14;99694.44;5038908;28;20135;-43
2022/12/09 10:39:59;;;;;;;47.15;21.58;;;;;;;9.58;82.28;99670.53;5069201;28;20121;-43
2022/12/09 10:45:11;;;;;;;40.38;22.08;;;;;;;9.51;81.91;99666.22;5073399;28;20545;-43
2022/12/09 10:47:36;;;;;;;41.88;21.60;;;;;;;9.47;83.06;99678.25;5072654;28;20028;-44
2022/12/09 10:50:04;;;;;;;48.30;23.75;;;;;;;9.37;82.63;99673.31;5073137;28;20025;-43
2022/12/09 10:52:38;;;;;;;51.58;25.13;;;;;;;9.37;83.38;99665.34;5073005;28;20029;-45
2022/12/09 10:55:04;;;;;;;48.45;24.45;;;;;;;9.84;81.52;99652.22;5073039;28;20144;-43
2022/12/09 10:57:29;;;;;;;48.92;23.35;;;;;;;9.61;81.83;99656.03;5072820;28;20119;-44
2022/12/09 11:00:06;;;;;;;42.28;20.80;;;;;;;10.02;80.19;99651.66;5072822;28;20082;-45
2022/12/09 11:02:33;;;;;;;48.60;21.08;;;;;;;9.85;81.24;99641.38;5073549;28;20020;-46
2022/12/09 11:05:27;;;;;;;45.30;22.13;;;;;;;9.74;82.07;99642.78;5073383;28;20176;-44
2022/12/09 11:07:54;;;;;;;46.55;23.85;;;;;;;9.60;82.14;99633.16;5072743;28;20029;-44
2022/12/09 11:10:25;;;;;;;50.70;22.80;;;;;;;9.34;84.66;99632.03;5072796;28;20094;-44
2022/12/09 11:12:54;;;;;;;46.50;22.95;;;;;;;9.81;82.17;99632.19;5072807;28;20401;-47
2022/12/09 11:15:24;;;;;;;49.22;21.48;;;;;;;9.75;82.53;99635.66;5072666;28;20020;-46
2022/12/09 11:17:55;;;;;;;40.60;19.85;;;;;;;10.06;81.19;99624.44;5072532;28;20559;-45
2022/12/09 11:20:27;;;;;;;44.50;20.10;;;;;;;10.08;80.63;99638.34;5072769;28;20096;-44
2022/12/09 11:23:16;;;;;;;41.88;19.77;;;;;;;9.88;81.94;99648.97;5072313;28;20104;-45
2022/12/09 11:25:57;;;;;;;40.88;18.67;;;;;;;9.96;81.40;99632.81;5072817;28;20020;-45
2022/12/09 11:28:27;;;;;;;40.05;20.27;;;;;;;9.62;83.07;99632.97;5072502;28;20069;-43
2022/12/09 11:31:05;;;;;;;43.47;20.40;;;;;;;9.61;82.86;99626.00;5072580;28;20035;-44
2022/12/09 11:33:34;;;;;;;44.47;19.80;;;;;;;9.47;84.13;99617.16;5072708;28;20408;-46
2022/12/09 11:36:16;;;;;;;41.45;20.17;;;;;;;9.53;83.92;99629.66;5071948;28;20020;-44
2022/12/09 11:38:44;;;;;;;39.05;19.20;;;;;;;9.47;83.63;99627.78;5072446;28;20032;-42